Ransom, Illinois
Current Conditions -  °F | °C
As of 3:15 PM on Monday 22 Dec 2014 (Local Time) from KPNT Reporting Station
Light Rain Light Rain  
Wind Chill: -1°   Ceiling: 500
Heat Index:   Visibility: 3mi
Dew Point:   Wind: 17mph
Humidity: 99%   Direction: 120°ESE
Pressure: 29.65"   Gusts: NA
Location:  41.16°N, 88.65°W
Report Text: KPNT 222115Z AUTO 12015KT 3SM -RA OVC005 04/04 A2965 RMK AO2 T00440042
Loading
Personal Weather Stations






























Interactive Weather Map New forecast layout! Learn more

10-Day Weather Forecast

Advertisements
Track Severe Weather on mobile